sensor_id;sensor_type;location;lat;lon;timestamp;pressure;altitude;pressure_sealevel;temperature;humidity
163;BME280;3946;48.958;8.284;2023-04-15T00:00:50;99549.09;;;3.58;100.00
163;BME280;3946;48.958;8.284;2023-04-15T00:03:36;99545.22;;;3.85;100.00
163;BME280;3946;48.958;8.284;2023-04-15T00:06:21;99545.19;;;4.19;100.00
163;BME280;3946;48.958;8.284;2023-04-15T00:09:07;99539.69;;;3.93;100.00
163;BME280;3946;48.958;8.284;2023-04-15T00:11:52;99525.88;;;4.12;100.00
163;BME280;3946;48.958;8.284;2023-04-15T00:14:38;99533.72;;;4.09;100.00
163;BME280;3946;48.958;8.284;2023-04-15T00:17:24;99526.47;;;4.35;100.00
163;BME280;3946;48.958;8.284;2023-04-15T00:20:10;99518.44;;;4.08;100.00
163;BME280;3946;48.958;8.284;2023-04-15T00:22:55;99523.97;;;3.83;100.00
163;BME280;3946;48.958;8.284;2023-04-15T00:25:41;99528.41;;;3.79;100.00
163;BME280;3946;48.958;8.284;2023-04-15T00:28:29;99521.47;;;3.64;100.00
163;BME280;3946;48.958;8.284;2023-04-15T00:31:15;99528.63;;;3.92;100.00
163;BME280;3946;48.958;8.284;2023-04-15T00:34:01;99531.03;;;3.78;100.00
163;BME280;3946;48.958;8.284;2023-04-15T00:36:46;99525.75;;;4.15;100.00
163;BME280;3946;48.958;8.284;2023-04-15T00:39:32;99520.09;;;3.92;100.00
163;BME280;3946;48.958;8.284;2023-04-15T00:42:18;99517.78;;;4.04;100.00
163;BME280;3946;48.958;8.284;2023-04-15T00:45:05;99523.97;;;3.83;100.00
163;BME280;3946;48.958;8.284;2023-04-15T00:47:52;99515.59;;;3.62;100.00
163;BME280;3946;48.958;8.284;2023-04-15T00:50:38;99524.78;;;3.49;100.00
163;BME280;3946;48.958;8.284;2023-04-15T00:53:24;99525.38;;;3.37;100.00
163;BME280;3946;48.958;8.284;2023-04-15T00:56:09;99527.38;;;3.30;100.00
163;BME280;3946;48.958;8.284;2023-04-15T00:58:55;99536.91;;;3.27;100.00
163;BME280;3946;48.958;8.284;2023-04-15T01:01:41;99531.97;;;3.24;100.00
163;BME280;3946;48.958;8.284;2023-04-15T01:04:28;99531.41;;;3.17;100.00
163;BME280;3946;48.958;8.284;2023-04-15T01:07:15;99533.22;;;3.15;100.00
163;BME280;3946;48.958;8.284;2023-04-15T01:10:02;99527.56;;;3.08;100.00
163;BME280;3946;48.958;8.284;2023-04-15T01:12:47;99522.94;;;2.98;100.00
163;BME280;3946;48.958;8.284;2023-04-15T01:15:34;99533.03;;;3.01;100.00
163;BME280;3946;48.958;8.284;2023-04-15T01:18:20;99531.50;;;2.97;100.00
163;BME280;3946;48.958;8.284;2023-04-15T01:21:06;99523.28;;;2.90;100.00
163;BME280;3946;48.958;8.284;2023-04-15T01:23:54;99534.63;;;3.03;100.00
163;BME280;3946;48.958;8.284;2023-04-15T01:26:42;99530.19;;;3.07;100.00
163;BME280;3946;48.958;8.284;2023-04-15T01:29:28;99524.78;;;2.94;100.00
163;BME280;3946;48.958;8.284;2023-04-15T01:32:13;99526.53;;;2.94;100.00
163;BME280;3946;48.958;8.284;2023-04-15T01:34:58;99524.84;;;2.93;100.00
163;BME280;3946;48.958;8.284;2023-04-15T01:37:45;99521.63;;;2.89;100.00
163;BME280;3946;48.958;8.284;2023-04-15T01:40:31;99525.09;;;2.88;100.00
163;BME280;3946;48.958;8.284;2023-04-15T01:43:17;99522.81;;;2.82;100.00
163;BME280;3946;48.958;8.284;2023-04-15T01:46:03;99533.88;;;2.83;100.00
163;BME280;3946;48.958;8.284;2023-04-15T01:48:49;99525.78;;;2.92;100.00
163;BME280;3946;48.958;8.284;2023-04-15T01:51:35;99530.47;;;2.82;100.00
163;BME280;3946;48.958;8.284;2023-04-15T01:54:20;99530.84;;;2.74;100.00
163;BME280;3946;48.958;8.284;2023-04-15T01:57:05;99523.56;;;2.65;100.00
163;BME280;3946;48.958;8.284;2023-04-15T01:59:53;99525.63;;;2.57;100.00
163;BME280;3946;48.958;8.284;2023-04-15T02:02:39;99527.78;;;2.85;100.00
163;BME280;3946;48.958;8.284;2023-04-15T02:05:24;99519.59;;;2.77;100.00
163;BME280;3946;48.958;8.284;2023-04-15T02:08:10;99535.38;;;2.87;100.00
163;BME280;3946;48.958;8.284;2023-04-15T02:10:55;99540.91;;;2.77;100.00
163;BME280;3946;48.958;8.284;2023-04-15T02:13:42;99542.44;;;2.81;100.00
163;BME280;3946;48.958;8.284;2023-04-15T02:16:29;99548.03;;;2.71;100.00
163;BME280;3946;48.958;8.284;2023-04-15T02:19:14;99548.66;;;2.57;100.00
163;BME280;3946;48.958;8.284;2023-04-15T02:21:59;99546.34;;;2.51;100.00
163;BME280;3946;48.958;8.284;2023-04-15T02:24:45;99547.44;;;2.45;100.00
163;BME280;3946;48.958;8.284;2023-04-15T02:27:31;99542.31;;;2.45;100.00
163;BME280;3946;48.958;8.284;2023-04-15T02:30:16;99541.38;;;2.48;100.00
163;BME280;3946;48.958;8.284;2023-04-15T02:33:03;99539.16;;;2.40;100.00
163;BME280;3946;48.958;8.284;2023-04-15T02:35:48;99548.22;;;2.47;100.00
163;BME280;3946;48.958;8.284;2023-04-15T02:38:34;99541.97;;;2.34;100.00
163;BME280;3946;48.958;8.284;2023-04-15T02:41:19;99542.97;;;2.51;100.00
163;BME280;3946;48.958;8.284;2023-04-15T02:44:08;99532.31;;;2.41;100.00
163;BME280;3946;48.958;8.284;2023-04-15T02:46:56;99548.97;;;2.50;100.00
163;BME280;3946;48.958;8.284;2023-04-15T02:49:42;99546.13;;;2.37;100.00
163;BME280;3946;48.958;8.284;2023-04-15T02:52:28;99552.00;;;2.39;100.00
163;BME280;3946;48.958;8.284;2023-04-15T02:55:13;99551.56;;;2.29;100.00
163;BME280;3946;48.958;8.284;2023-04-15T02:57:58;99556.22;;;2.40;100.00
163;BME280;3946;48.958;8.284;2023-04-15T03:00:46;99556.72;;;2.28;100.00
163;BME280;3946;48.958;8.284;2023-04-15T03:03:34;99551.78;;;2.25;100.00
163;BME280;3946;48.958;8.284;2023-04-15T03:06:20;99552.66;;;2.24;100.00
163;BME280;3946;48.958;8.284;2023-04-15T03:09:07;99554.50;;;2.20;100.00
163;BME280;3946;48.958;8.284;2023-04-15T03:11:54;99561.47;;;2.17;100.00
163;BME280;3946;48.958;8.284;2023-04-15T03:14:40;99556.25;;;2.20;100.00
163;BME280;3946;48.958;8.284;2023-04-15T03:17:26;99559.38;;;2.06;100.00
163;BME280;3946;48.958;8.284;2023-04-15T03:20:12;99562.13;;;2.01;100.00
163;BME280;3946;48.958;8.284;2023-04-15T03:22:58;99564.91;;;1.95;100.00
163;BME280;3946;48.958;8.284;2023-04-15T03:25:44;99566.66;;;1.95;100.00
163;BME280;3946;48.958;8.284;2023-04-15T03:28:29;99564.03;;;1.96;100.00
163;BME280;3946;48.958;8.284;2023-04-15T03:31:16;99560.50;;;1.99;100.00
163;BME280;3946;48.958;8.284;2023-04-15T03:34:01;99556.63;;;1.90;100.00
163;BME280;3946;48.958;8.284;2023-04-15T03:36:47;99559.31;;;1.87;100.00
163;BME280;3946;48.958;8.284;2023-04-15T03:39:33;99565.69;;;1.77;100.00
163;BME280;3946;48.958;8.284;2023-04-15T03:42:25;99568.25;;;1.77;100.00
163;BME280;3946;48.958;8.284;2023-04-15T03:45:10;99565.09;;;1.70;100.00
163;BME280;3946;48.958;8.284;2023-04-15T03:47:55;99569.91;;;1.78;100.00
163;BME280;3946;48.958;8.284;2023-04-15T03:50:41;99566.63;;;1.74;100.00
163;BME280;3946;48.958;8.284;2023-04-15T03:53:26;99563.75;;;1.82;100.00
163;BME280;3946;48.958;8.284;2023-04-15T03:56:15;99567.53;;;1.73;100.00
163;BME280;3946;48.958;8.284;2023-04-15T03:59:01;99565.38;;;1.63;100.00
163;BME280;3946;48.958;8.284;2023-04-15T04:01:46;99577.47;;;1.59;100.00
163;BME280;3946;48.958;8.284;2023-04-15T04:04:31;99576.03;;;1.52;100.00
163;BME280;3946;48.958;8.284;2023-04-15T04:07:17;99579.41;;;1.53;100.00
163;BME280;3946;48.958;8.284;2023-04-15T04:10:03;99576.28;;;1.46;100.00
163;BME280;3946;48.958;8.284;2023-04-15T04:12:50;99579.13;;;1.38;100.00
163;BME280;3946;48.958;8.284;2023-04-15T04:15:37;99571.59;;;1.35;100.00
163;BME280;3946;48.958;8.284;2023-04-15T04:18:22;99579.41;;;1.31;100.00
163;BME280;3946;48.958;8.284;2023-04-15T04:21:07;99577.78;;;1.30;100.00
163;BME280;3946;48.958;8.284;2023-04-15T04:23:53;99575.97;;;1.32;100.00
163;BME280;3946;48.958;8.284;2023-04-15T04:26:39;99574.72;;;1.20;100.00
163;BME280;3946;48.958;8.284;2023-04-15T04:29:25;99572.94;;;1.22;100.00
163;BME280;3946;48.958;8.284;2023-04-15T04:32:11;99572.28;;;1.17;100.00
163;BME280;3946;48.958;8.284;2023-04-15T04:34:56;99571.28;;;1.21;100.00
163;BME280;3946;48.958;8.284;2023-04-15T04:37:42;99583.88;;;1.26;100.00
163;BME280;3946;48.958;8.284;2023-04-15T04:40:27;99584.81;;;1.23;100.00
163;BME280;3946;48.958;8.284;2023-04-15T04:43:12;99587.44;;;1.22;100.00
163;BME280;3946;48.958;8.284;2023-04-15T04:46:00;99593.97;;;1.29;100.00
163;BME280;3946;48.958;8.284;2023-04-15T04:48:45;99594.66;;;1.32;100.00
163;BME280;3946;48.958;8.284;2023-04-15T04:51:31;99604.47;;;1.43;100.00
163;BME280;3946;48.958;8.284;2023-04-15T04:54:16;99604.22;;;1.49;100.00
163;BME280;3946;48.958;8.284;2023-04-15T04:57:01;99601.22;;;1.61;100.00
163;BME280;3946;48.958;8.284;2023-04-15T04:59:47;99594.50;;;1.79;100.00
163;BME280;3946;48.958;8.284;2023-04-15T05:02:34;99601.06;;;1.86;100.00
163;BME280;3946;48.958;8.284;2023-04-15T05:05:19;99606.75;;;2.33;100.00
163;BME280;3946;48.958;8.284;2023-04-15T05:08:04;99604.53;;;2.26;100.00
163;BME280;3946;48.958;8.284;2023-04-15T05:10:50;99602.66;;;2.29;100.00
163;BME280;3946;48.958;8.284;2023-04-15T05:13:36;99599.09;;;2.33;100.00
163;BME280;3946;48.958;8.284;2023-04-15T05:16:21;99605.56;;;2.61;100.00
163;BME280;3946;48.958;8.284;2023-04-15T05:19:10;99600.31;;;2.84;100.00
163;BME280;3946;48.958;8.284;2023-04-15T05:21:55;99587.34;;;3.43;100.00
163;BME280;3946;48.958;8.284;2023-04-15T05:24:41;99596.69;;;3.98;100.00
163;BME280;3946;48.958;8.284;2023-04-15T05:27:26;99592.09;;;4.87;100.00
163;BME280;3946;48.958;8.284;2023-04-15T05:30:12;99584.53;;;5.33;100.00
163;BME280;3946;48.958;8.284;2023-04-15T05:32:57;99581.44;;;5.42;100.00
163;BME280;3946;48.958;8.284;2023-04-15T05:35:44;99578.56;;;5.78;100.00
163;BME280;3946;48.958;8.284;2023-04-15T05:38:29;99578.91;;;6.32;98.84
163;BME280;3946;48.958;8.284;2023-04-15T05:41:15;99565.94;;;6.90;94.65
163;BME280;3946;48.958;8.284;2023-04-15T05:44:00;99565.41;;;7.53;91.08
163;BME280;3946;48.958;8.284;2023-04-15T05:46:45;99560.22;;;7.80;87.30
163;BME280;3946;48.958;8.284;2023-04-15T05:49:34;99570.28;;;7.58;86.14
163;BME280;3946;48.958;8.284;2023-04-15T05:52:20;99555.91;;;7.81;86.35
163;BME280;3946;48.958;8.284;2023-04-15T05:55:07;99551.00;;;8.28;84.18
163;BME280;3946;48.958;8.284;2023-04-15T05:57:52;99544.22;;;8.65;81.54
163;BME280;3946;48.958;8.284;2023-04-15T06:00:38;99539.28;;;8.50;80.67
163;BME280;3946;48.958;8.284;2023-04-15T06:03:23;99568.22;;;7.90;82.25
163;BME280;3946;48.958;8.284;2023-04-15T06:06:09;99585.16;;;7.40;85.15
163;BME280;3946;48.958;8.284;2023-04-15T06:08:55;99580.66;;;6.88;87.37
163;BME280;3946;48.958;8.284;2023-04-15T06:11:41;99586.19;;;6.96;86.99
163;BME280;3946;48.958;8.284;2023-04-15T06:14:26;99589.97;;;6.62;89.22
163;BME280;3946;48.958;8.284;2023-04-15T06:17:12;99570.72;;;6.96;86.39
163;BME280;3946;48.958;8.284;2023-04-15T06:19:57;99565.44;;;7.26;85.03
163;BME280;3946;48.958;8.284;2023-04-15T06:22:43;99576.84;;;7.22;85.55
163;BME280;3946;48.958;8.284;2023-04-15T06:25:29;99571.13;;;7.58;84.15
163;BME280;3946;48.958;8.284;2023-04-15T06:28:15;99568.72;;;7.55;83.49
163;BME280;3946;48.958;8.284;2023-04-15T06:31:00;99586.59;;;7.58;84.71
163;BME280;3946;48.958;8.284;2023-04-15T06:33:46;99580.81;;;7.94;84.70
163;BME280;3946;48.958;8.284;2023-04-15T06:36:31;99578.59;;;8.28;83.97
163;BME280;3946;48.958;8.284;2023-04-15T06:39:16;99565.38;;;8.45;83.11
163;BME280;3946;48.958;8.284;2023-04-15T06:42:03;99572.09;;;8.48;83.57
163;BME280;3946;48.958;8.284;2023-04-15T06:44:48;99565.91;;;8.63;81.92
163;BME280;3946;48.958;8.284;2023-04-15T06:47:34;99560.25;;;8.58;82.16
163;BME280;3946;48.958;8.284;2023-04-15T06:50:20;99574.81;;;8.59;82.34
163;BME280;3946;48.958;8.284;2023-04-15T06:53:08;99583.25;;;8.48;83.44
163;BME280;3946;48.958;8.284;2023-04-15T06:55:53;99589.84;;;8.27;84.40
163;BME280;3946;48.958;8.284;2023-04-15T06:58:40;99573.25;;;8.44;84.02
163;BME280;3946;48.958;8.284;2023-04-15T07:01:25;99561.56;;;8.63;82.34
163;BME280;3946;48.958;8.284;2023-04-15T07:04:10;99569.94;;;8.67;82.73
163;BME280;3946;48.958;8.284;2023-04-15T07:06:56;99576.66;;;8.44;83.09
163;BME280;3946;48.958;8.284;2023-04-15T07:09:41;99579.75;;;8.49;83.62
163;BME280;3946;48.958;8.284;2023-04-15T07:12:27;99590.31;;;8.06;84.58
163;BME280;3946;48.958;8.284;2023-04-15T07:15:14;99587.38;;;8.25;85.61
163;BME280;3946;48.958;8.284;2023-04-15T07:17:59;99579.66;;;8.51;84.46
163;BME280;3946;48.958;8.284;2023-04-15T07:20:44;99575.72;;;8.70;84.16
163;BME280;3946;48.958;8.284;2023-04-15T07:23:30;99574.34;;;8.90;83.85
163;BME280;3946;48.958;8.284;2023-04-15T07:26:15;99581.06;;;8.93;84.39
163;BME280;3946;48.958;8.284;2023-04-15T07:29:01;99581.28;;;8.90;84.43
163;BME280;3946;48.958;8.284;2023-04-15T07:31:48;99578.69;;;8.90;84.46
163;BME280;3946;48.958;8.284;2023-04-15T07:34:33;99590.16;;;8.86;85.71
163;BME280;3946;48.958;8.284;2023-04-15T07:37:18;99587.38;;;8.89;85.14
163;BME280;3946;48.958;8.284;2023-04-15T07:40:07;99590.06;;;8.87;86.31
163;BME280;3946;48.958;8.284;2023-04-15T07:42:52;99586.81;;;8.96;86.67
163;BME280;3946;48.958;8.284;2023-04-15T07:45:37;99590.13;;;8.98;86.40
163;BME280;3946;48.958;8.284;2023-04-15T07:48:24;99593.09;;;9.18;86.48
163;BME280;3946;48.958;8.284;2023-04-15T07:51:09;99587.50;;;9.24;84.84
163;BME280;3946;48.958;8.284;2023-04-15T07:53:55;99585.19;;;9.32;83.27
163;BME280;3946;48.958;8.284;2023-04-15T07:56:41;99577.47;;;9.56;81.66
163;BME280;3946;48.958;8.284;2023-04-15T07:59:26;99580.19;;;9.65;80.92
163;BME280;3946;48.958;8.284;2023-04-15T08:02:12;99586.59;;;9.72;81.33
163;BME280;3946;48.958;8.284;2023-04-15T08:05:00;99583.16;;;10.07;81.33
163;BME280;3946;48.958;8.284;2023-04-15T08:07:47;99590.31;;;10.27;81.69
163;BME280;3946;48.958;8.284;2023-04-15T08:10:32;99586.44;;;10.33;80.93
163;BME280;3946;48.958;8.284;2023-04-15T08:13:18;99569.75;;;10.59;80.11
163;BME280;3946;48.958;8.284;2023-04-15T08:16:13;99578.22;;;10.95;79.47
163;BME280;3946;48.958;8.284;2023-04-15T08:18:59;99576.94;;;10.78;79.56
163;BME280;3946;48.958;8.284;2023-04-15T08:21:45;99563.97;;;11.00;79.12
163;BME280;3946;48.958;8.284;2023-04-15T08:24:31;99580.59;;;10.75;79.77
163;BME280;3946;48.958;8.284;2023-04-15T08:27:16;99582.25;;;10.99;79.14
163;BME280;3946;48.958;8.284;2023-04-15T08:30:02;99577.63;;;11.13;79.09
163;BME280;3946;48.958;8.284;2023-04-15T08:32:49;99561.94;;;11.58;76.89
163;BME280;3946;48.958;8.284;2023-04-15T08:35:34;99566.59;;;11.75;76.91
163;BME280;3946;48.958;8.284;2023-04-15T08:38:21;99560.81;;;12.04;75.87
163;BME280;3946;48.958;8.284;2023-04-15T08:41:11;99540.00;;;11.62;74.21
163;BME280;3946;48.958;8.284;2023-04-15T08:44:04;99550.03;;;11.67;73.94
163;BME280;3946;48.958;8.284;2023-04-15T08:46:50;99555.34;;;11.65;73.89
163;BME280;3946;48.958;8.284;2023-04-15T08:49:39;99535.06;;;12.33;72.81
163;BME280;3946;48.958;8.284;2023-04-15T08:52:25;99526.31;;;12.34;71.88
163;BME280;3946;48.958;8.284;2023-04-15T08:55:12;99508.16;;;12.83;70.65
163;BME280;3946;48.958;8.284;2023-04-15T08:57:58;99492.59;;;12.93;68.98
163;BME280;3946;48.958;8.284;2023-04-15T09:00:45;99482.56;;;12.79;68.85
163;BME280;3946;48.958;8.284;2023-04-15T09:03:31;99429.50;;;13.49;65.95
163;BME280;3946;48.958;8.284;2023-04-15T09:06:17;99425.28;;;13.48;64.40
163;BME280;3946;48.958;8.284;2023-04-15T09:09:02;99452.13;;;13.48;65.68
163;BME280;3946;48.958;8.284;2023-04-15T09:11:51;99463.09;;;13.61;65.84
163;BME280;3946;48.958;8.284;2023-04-15T09:14:37;99464.41;;;13.08;66.07
163;BME280;3946;48.958;8.284;2023-04-15T09:17:24;99434.84;;;13.76;64.67
163;BME280;3946;48.958;8.284;2023-04-15T09:20:11;99386.44;;;14.48;62.08
163;BME280;3946;48.958;8.284;2023-04-15T09:22:58;99395.53;;;14.44;61.83
163;BME280;3946;48.958;8.284;2023-04-15T09:25:44;99378.75;;;14.74;60.47
163;BME280;3946;48.958;8.284;2023-04-15T09:28:30;99400.28;;;14.76;60.74
163;BME280;3946;48.958;8.284;2023-04-15T09:31:16;99377.09;;;14.73;59.52
163;BME280;3946;48.958;8.284;2023-04-15T09:34:02;99395.94;;;14.12;60.30
163;BME280;3946;48.958;8.284;2023-04-15T09:36:51;99407.00;;;14.51;60.46
163;BME280;3946;48.958;8.284;2023-04-15T09:39:46;99460.47;;;14.18;62.98
163;BME280;3946;48.958;8.284;2023-04-15T09:42:32;99435.47;;;14.44;61.85
163;BME280;3946;48.958;8.284;2023-04-15T09:45:19;99397.56;;;14.67;59.64
163;BME280;3946;48.958;8.284;2023-04-15T09:48:14;99418.78;;;14.55;60.40
163;BME280;3946;48.958;8.284;2023-04-15T09:51:00;99420.16;;;14.94;60.38
163;BME280;3946;48.958;8.284;2023-04-15T09:53:45;99443.31;;;15.07;60.84
163;BME280;3946;48.958;8.284;2023-04-15T09:56:31;99385.06;;;15.24;58.01
163;BME280;3946;48.958;8.284;2023-04-15T09:59:16;99384.00;;;15.17;57.73
163;BME280;3946;48.958;8.284;2023-04-15T10:02:04;99392.75;;;15.26;57.42
163;BME280;3946;48.958;8.284;2023-04-15T10:04:51;99379.25;;;15.13;57.23
163;BME280;3946;48.958;8.284;2023-04-15T10:07:37;99392.91;;;15.24;57.67
163;BME280;3946;48.958;8.284;2023-04-15T10:10:23;99393.72;;;15.07;57.24
163;BME280;3946;48.958;8.284;2023-04-15T10:13:09;99393.63;;;15.17;57.46
163;BME280;3946;48.958;8.284;2023-04-15T10:15:57;99443.75;;;15.20;59.14
163;BME280;3946;48.958;8.284;2023-04-15T10:18:45;99416.38;;;15.42;57.67
163;BME280;3946;48.958;8.284;2023-04-15T10:21:30;99385.50;;;15.37;56.66
163;BME280;3946;48.958;8.284;2023-04-15T10:24:15;99389.97;;;15.27;56.81
163;BME280;3946;48.958;8.284;2023-04-15T10:27:01;99361.06;;;15.21;55.53
163;BME280;3946;48.958;8.284;2023-04-15T10:29:47;99386.63;;;15.17;56.33
163;BME280;3946;48.958;8.284;2023-04-15T10:32:32;99388.66;;;15.49;56.25
163;BME280;3946;48.958;8.284;2023-04-15T10:35:19;99358.09;;;15.93;55.06
163;BME280;3946;48.958;8.284;2023-04-15T10:41:11;99357.47;;;15.48;54.46
163;BME280;3946;48.958;8.284;2023-04-15T10:43:59;99404.06;;;15.34;56.03
163;BME280;3946;48.958;8.284;2023-04-15T10:46:44;99372.28;;;15.57;54.71
163;BME280;3946;48.958;8.284;2023-04-15T10:49:30;99379.16;;;15.40;55.15
163;BME280;3946;48.958;8.284;2023-04-15T10:52:16;99371.72;;;15.53;54.75
163;BME280;3946;48.958;8.284;2023-04-15T10:55:02;99395.41;;;15.78;55.17
163;BME280;3946;48.958;8.284;2023-04-15T10:57:50;99348.22;;;16.13;53.46
163;BME280;3946;48.958;8.284;2023-04-15T11:00:35;99375.53;;;16.27;54.00
163;BME280;3946;48.958;8.284;2023-04-15T11:03:33;99397.22;;;16.11;54.81
163;BME280;3946;48.958;8.284;2023-04-15T11:06:22;99375.63;;;16.51;53.82
163;BME280;3946;48.958;8.284;2023-04-15T11:09:33;99325.69;;;16.70;51.85
163;BME280;3946;48.958;8.284;2023-04-15T11:12:18;99339.41;;;16.72;51.91
163;BME280;3946;48.958;8.284;2023-04-15T11:18:07;99341.00;;;17.71;51.63
163;BME280;3946;48.958;8.284;2023-04-15T11:20:53;99333.53;;;17.27;51.44
163;BME280;3946;48.958;8.284;2023-04-15T11:23:39;99315.88;;;17.05;50.31
163;BME280;3946;48.958;8.284;2023-04-15T11:26:28;99352.19;;;17.08;51.89
163;BME280;3946;48.958;8.284;2023-04-15T11:29:16;99272.72;;;17.01;48.87
163;BME280;3946;48.958;8.284;2023-04-15T11:32:03;99280.41;;;16.70;48.64
163;BME280;3946;48.958;8.284;2023-04-15T11:34:50;99301.59;;;16.51;49.35
163;BME280;3946;48.958;8.284;2023-04-15T11:37:35;99290.47;;;16.57;49.21
163;BME280;3946;48.958;8.284;2023-04-15T11:40:21;99304.09;;;17.01;49.28
163;BME280;3946;48.958;8.284;2023-04-15T11:43:08;99291.47;;;17.29;48.51
163;BME280;3946;48.958;8.284;2023-04-15T11:45:54;99277.13;;;16.92;47.91
163;BME280;3946;48.958;8.284;2023-04-15T11:48:41;99278.59;;;16.78;48.13
163;BME280;3946;48.958;8.284;2023-04-15T11:51:31;99313.44;;;16.87;49.34
163;BME280;3946;48.958;8.284;2023-04-15T11:54:17;99284.47;;;16.97;48.27
163;BME280;3946;48.958;8.284;2023-04-15T11:57:02;99267.28;;;17.19;47.13
163;BME280;3946;48.958;8.284;2023-04-15T11:59:49;99247.84;;;16.97;46.72
163;BME280;3946;48.958;8.284;2023-04-15T12:02:35;99283.47;;;17.06;47.67
163;BME280;3946;48.958;8.284;2023-04-15T12:05:20;99274.63;;;17.07;47.36
163;BME280;3946;48.958;8.284;2023-04-15T12:08:05;99284.59;;;17.28;47.66
163;BME280;3946;48.958;8.284;2023-04-15T12:10:50;99258.53;;;17.42;46.38
163;BME280;3946;48.958;8.284;2023-04-15T12:13:35;99252.06;;;17.14;46.30
163;BME280;3946;48.958;8.284;2023-04-15T12:16:22;99238.38;;;16.71;45.57
163;BME280;3946;48.958;8.284;2023-04-15T12:19:08;99267.16;;;16.79;45.91
163;BME280;3946;48.958;8.284;2023-04-15T12:21:56;99255.53;;;16.98;45.97
163;BME280;3946;48.958;8.284;2023-04-15T12:24:43;99270.91;;;16.85;46.22
163;BME280;3946;48.958;8.284;2023-04-15T12:27:30;99259.13;;;16.89;45.40
163;BME280;3946;48.958;8.284;2023-04-15T12:30:15;99234.59;;;16.74;44.89
163;BME280;3946;48.958;8.284;2023-04-15T12:33:01;99258.31;;;16.81;44.67
163;BME280;3946;48.958;8.284;2023-04-15T12:35:46;99217.59;;;16.94;43.42
163;BME280;3946;48.958;8.284;2023-04-15T12:38:32;99234.84;;;17.28;44.00
163;BME280;3946;48.958;8.284;2023-04-15T12:41:17;99190.06;;;17.54;42.30
163;BME280;3946;48.958;8.284;2023-04-15T12:44:02;99171.22;;;17.58;41.59
163;BME280;3946;48.958;8.284;2023-04-15T12:46:48;99211.84;;;17.54;42.54
163;BME280;3946;48.958;8.284;2023-04-15T12:49:34;99184.88;;;17.85;41.70
163;BME280;3946;48.958;8.284;2023-04-15T12:52:20;99153.63;;;18.43;39.95
163;BME280;3946;48.958;8.284;2023-04-15T12:55:06;99155.88;;;18.09;39.83
163;BME280;3946;48.958;8.284;2023-04-15T12:57:51;99209.00;;;18.03;41.52
163;BME280;3946;48.958;8.284;2023-04-15T13:00:36;99196.91;;;18.47;40.94
163;BME280;3946;48.958;8.284;2023-04-15T13:03:21;99177.88;;;18.45;40.26
163;BME280;3946;48.958;8.284;2023-04-15T13:06:07;99186.78;;;18.36;40.58
163;BME280;3946;48.958;8.284;2023-04-15T13:08:52;99227.72;;;18.23;42.06
163;BME280;3946;48.958;8.284;2023-04-15T13:11:37;99243.38;;;17.77;42.16
163;BME280;3946;48.958;8.284;2023-04-15T13:14:22;99262.47;;;17.46;43.00
163;BME280;3946;48.958;8.284;2023-04-15T13:17:07;99295.19;;;17.51;44.05
163;BME280;3946;48.958;8.284;2023-04-15T13:19:53;99297.06;;;17.09;44.34
163;BME280;3946;48.958;8.284;2023-04-15T13:22:40;99335.16;;;16.63;45.38
163;BME280;3946;48.958;8.284;2023-04-15T13:25:25;99375.28;;;16.46;46.61
163;BME280;3946;48.958;8.284;2023-04-15T13:28:10;99344.56;;;16.56;45.60
163;BME280;3946;48.958;8.284;2023-04-15T13:30:56;99371.91;;;16.62;46.55
163;BME280;3946;48.958;8.284;2023-04-15T13:33:41;99348.88;;;16.73;45.81
163;BME280;3946;48.958;8.284;2023-04-15T13:36:25;99350.72;;;16.81;45.58
163;BME280;3946;48.958;8.284;2023-04-15T13:39:12;99360.84;;;16.84;45.97
163;BME280;3946;48.958;8.284;2023-04-15T13:41:57;99389.31;;;16.87;46.54
163;BME280;3946;48.958;8.284;2023-04-15T13:44:42;99378.53;;;16.40;46.47
163;BME280;3946;48.958;8.284;2023-04-15T13:47:29;99390.41;;;16.18;46.68
163;BME280;3946;48.958;8.284;2023-04-15T13:50:14;99384.50;;;16.16;46.61
163;BME280;3946;48.958;8.284;2023-04-15T13:52:59;99404.53;;;16.07;47.07
163;BME280;3946;48.958;8.284;2023-04-15T13:55:45;99385.47;;;16.15;46.37
163;BME280;3946;48.958;8.284;2023-04-15T13:58:30;99412.38;;;16.07;47.31
163;BME280;3946;48.958;8.284;2023-04-15T14:01:15;99445.19;;;16.02;48.37
163;BME280;3946;48.958;8.284;2023-04-15T14:04:01;99484.22;;;15.78;49.64
163;BME280;3946;48.958;8.284;2023-04-15T14:06:46;99520.91;;;15.94;50.67
163;BME280;3946;48.958;8.284;2023-04-15T14:09:32;99517.53;;;15.58;50.71
163;BME280;3946;48.958;8.284;2023-04-15T14:12:18;99543.31;;;15.61;51.65
163;BME280;3946;48.958;8.284;2023-04-15T14:15:04;99568.94;;;15.30;52.09
163;BME280;3946;48.958;8.284;2023-04-15T14:17:49;99590.34;;;15.33;53.25
163;BME280;3946;48.958;8.284;2023-04-15T14:20:34;99583.09;;;15.27;52.83
163;BME280;3946;48.958;8.284;2023-04-15T14:23:19;99603.06;;;15.19;53.41
163;BME280;3946;48.958;8.284;2023-04-15T14:26:04;99602.06;;;15.02;53.28
163;BME280;3946;48.958;8.284;2023-04-15T14:28:50;99603.44;;;14.96;53.24
163;BME280;3946;48.958;8.284;2023-04-15T14:31:36;99620.81;;;14.78;54.04
163;BME280;3946;48.958;8.284;2023-04-15T14:34:21;99638.69;;;14.73;54.33
163;BME280;3946;48.958;8.284;2023-04-15T14:37:07;99634.75;;;14.59;54.39
163;BME280;3946;48.958;8.284;2023-04-15T14:39:52;99635.25;;;14.63;54.33
163;BME280;3946;48.958;8.284;2023-04-15T14:42:37;99646.97;;;14.59;54.75
163;BME280;3946;48.958;8.284;2023-04-15T14:45:23;99652.88;;;14.51;54.70
163;BME280;3946;48.958;8.284;2023-04-15T14:48:08;99653.53;;;14.53;54.45
163;BME280;3946;48.958;8.284;2023-04-15T14:50:55;99688.81;;;14.48;55.79
163;BME280;3946;48.958;8.284;2023-04-15T14:53:40;99690.44;;;14.49;55.85
163;BME280;3946;48.958;8.284;2023-04-15T14:56:25;99610.47;;;14.40;52.74
163;BME280;3946;48.958;8.284;2023-04-15T14:59:10;99582.50;;;14.32;51.66
163;BME280;3946;48.958;8.284;2023-04-15T15:01:56;99596.50;;;14.41;52.13
163;BME280;3946;48.958;8.284;2023-04-15T15:04:41;99574.66;;;14.51;51.07
163;BME280;3946;48.958;8.284;2023-04-15T15:07:26;99592.06;;;14.60;51.54
163;BME280;3946;48.958;8.284;2023-04-15T15:10:11;99594.22;;;14.65;51.17
163;BME280;3946;48.958;8.284;2023-04-15T15:12:56;99593.31;;;14.56;51.38
163;BME280;3946;48.958;8.284;2023-04-15T15:15:41;99586.19;;;14.58;50.93
163;BME280;3946;48.958;8.284;2023-04-15T15:18:28;99613.22;;;14.48;51.75
163;BME280;3946;48.958;8.284;2023-04-15T15:21:14;99587.13;;;14.57;50.76
163;BME280;3946;48.958;8.284;2023-04-15T15:23:58;99591.66;;;14.46;50.81